Time;durP1;ratioP1;P1;durP2;ratioP2;P2;SDS_P1;SDS_P2;PMS_P1;PMS_P2;Temp;Humidity;BMP_temperature;BMP_pressure;BME280_temperature;BME280_humidity;BME280_pressure;Samples;Min_cycle;Max_cycle;Signal;HPM_P1;HPM_P2
2023/04/11 03:49:52;;;;;;;1999.90;999.90;;;;;;;;;;6180876;23;20191;-68
2023/04/11 03:52:37;;;;;;;1999.90;999.90;;;;;;;;;;6183291;23;20250;-73
2023/04/11 03:55:22;;;;;;;1999.90;999.90;;;;;;;;;;6183236;23;20385;-72
2023/04/11 03:58:07;;;;;;;1999.90;999.90;;;;;;;;;;6183723;23;20697;-73
2023/04/11 04:00:52;;;;;;;1999.90;999.90;;;;;;;;;;6183921;23;20222;-71
2023/04/11 04:03:37;;;;;;;1999.90;999.90;;;;;;;;;;6183607;23;20169;-72
2023/04/11 04:06:23;;;;;;;1999.90;999.90;;;;;;;;;;6183380;23;20190;-71
2023/04/11 04:09:08;;;;;;;1999.90;999.90;;;;;;;;;;6183506;23;20733;-72
2023/04/11 04:11:53;;;;;;;1999.90;999.90;;;;;;;;;;6183535;23;20170;-71
2023/04/11 04:14:38;;;;;;;1999.90;999.90;;;;;;;;;;6182975;23;20487;-72
2023/04/11 04:17:23;;;;;;;1999.90;999.90;;;;;;;;;;6182871;23;20226;-69
2023/04/11 04:20:09;;;;;;;1999.90;999.90;;;;;;;;;;6183589;23;20209;-71
2023/04/11 04:22:55;;;;;;;1999.90;999.90;;;;;;;;;;6183424;23;20244;-70
2023/04/11 04:25:41;;;;;;;1999.90;999.90;;;;;;;;;;6183147;23;20166;-70
2023/04/11 04:28:26;;;;;;;1999.90;999.90;;;;;;;;;;6183265;23;20201;-71
2023/04/11 04:31:12;;;;;;;1999.90;999.90;;;;;;;;;;6183464;23;20186;-71
2023/04/11 04:33:57;;;;;;;1999.90;999.90;;;;;;;;;;6183274;23;20170;-72
2023/04/11 04:36:46;;;;;;;1999.90;999.90;;;;;;;;;;6183459;23;20169;-73
2023/04/11 04:39:32;;;;;;;1999.90;999.90;;;;;;;;;;6183297;23;20206;-72
2023/04/11 04:42:18;;;;;;;1999.90;999.90;;;;;;;;;;6183264;23;20182;-71
2023/04/11 04:45:03;;;;;;;1999.90;999.90;;;;;;;;;;6183398;23;20535;-72
2023/04/11 04:47:48;;;;;;;1999.90;999.90;;;;;;;;;;6182630;23;20217;-72
2023/04/11 04:50:33;;;;;;;1999.90;999.90;;;;;;;;;;6182424;23;20555;-72
2023/04/11 04:53:18;;;;;;;1999.90;999.90;;;;;;;;;;6182591;23;20185;-73
2023/04/11 04:56:05;;;;;;;1999.90;999.90;;;;;;;;;;6182475;23;20170;-73
2023/04/11 04:58:50;;;;;;;1999.90;999.90;;;;;;;;;;6182234;23;20374;-72
2023/04/11 05:01:38;;;;;;;1999.90;999.90;;;;;;;;;;6182527;23;20182;-72
2023/04/11 05:04:23;;;;;;;1999.90;999.90;;;;;;;;;;6182108;23;20733;-72
2023/04/11 05:07:08;;;;;;;1999.90;999.90;;;;;;;;;;6182885;23;20631;-72
2023/04/11 05:09:53;;;;;;;1999.90;999.90;;;;;;;;;;6181589;23;20170;-72
2023/04/11 05:12:39;;;;;;;1999.90;999.90;;;;;;;;;;6182100;23;20189;-71
2023/04/11 05:15:24;;;;;;;1999.90;999.90;;;;;;;;;;6182649;23;20214;-72
2023/04/11 05:18:09;;;;;;;1999.90;999.90;;;;;;;;;;6182024;23;20281;-71
2023/04/11 05:20:54;;;;;;;1999.90;999.90;;;;;;;;;;6182374;23;20499;-72
2023/04/11 05:23:39;;;;;;;1999.90;999.90;;;;;;;;;;6182174;23;20167;-71
2023/04/11 05:26:24;;;;;;;1999.90;999.90;;;;;;;;;;6182588;23;20169;-72
2023/04/11 05:29:10;;;;;;;1999.90;999.90;;;;;;;;;;6181703;23;20209;-71
2023/04/11 05:31:55;;;;;;;1999.90;999.90;;;;;;;;;;6182620;23;20174;-71
2023/04/11 05:34:50;;;;;;;1999.90;999.90;;;;;;;;;;6181164;23;20424;-71
2023/04/11 05:37:36;;;;;;;1999.90;999.90;;;;;;;;;;6184482;23;20249;-71
2023/04/11 05:40:21;;;;;;;1999.90;999.90;;;;;;;;;;6183626;23;20229;-72
2023/04/11 05:43:05;;;;;;;1999.90;999.90;;;;;;;;;;6183882;23;20212;-71
2023/04/11 05:45:51;;;;;;;1999.90;999.90;;;;;;;;;;6184247;23;20270;-73
2023/04/11 05:48:37;;;;;;;1999.90;999.90;;;;;;;;;;6183191;23;20933;-71
2023/04/11 05:51:22;;;;;;;1999.90;999.90;;;;;;;;;;6184143;23;20170;-72
2023/04/11 05:54:07;;;;;;;1999.90;999.90;;;;;;;;;;6183739;23;20249;-70
2023/04/11 05:56:52;;;;;;;1999.90;999.90;;;;;;;;;;6184545;23;20619;-71
2023/04/11 05:59:37;;;;;;;1999.90;999.90;;;;;;;;;;6182852;23;20265;-72
2023/04/11 06:02:23;;;;;;;1999.90;999.90;;;;;;;;;;6183861;23;20501;-72
2023/04/11 06:05:09;;;;;;;1999.90;999.90;;;;;;;;;;6184301;23;20166;-72
2023/04/11 06:07:56;;;;;;;1999.90;999.90;;;;;;;;;;6183714;23;20217;-72
2023/04/11 06:10:41;;;;;;;1999.90;999.90;;;;;;;;;;6183830;23;20651;-72
2023/04/11 06:13:26;;;;;;;1999.90;999.90;;;;;;;;;;6183726;23;20504;-72
2023/04/11 06:16:11;;;;;;;1999.90;999.90;;;;;;;;;;6183901;23;20627;-71
2023/04/11 06:18:57;;;;;;;1999.90;999.90;;;;;;;;;;6184781;23;20249;-71
2023/04/11 06:21:42;;;;;;;1999.90;999.90;;;;;;;;;;6184711;23;20250;-71
2023/04/11 06:24:34;;;;;;;1999.90;999.90;;;;;;;;;;6183432;23;20415;-71
2023/04/11 06:27:19;;;;;;;1999.90;999.90;;;;;;;;;;6183539;23;20218;-72
2023/04/11 06:30:05;;;;;;;1999.90;999.90;;;;;;;;;;6184027;23;20166;-72
2023/04/11 06:32:51;;;;;;;1999.90;999.90;;;;;;;;;;6183702;23;20274;-71
2023/04/11 06:35:37;;;;;;;1999.90;999.90;;;;;;;;;;6183763;23;20294;-71
2023/04/11 06:38:22;;;;;;;1999.90;999.90;;;;;;;;;;6181731;23;20685;-72
2023/04/11 06:41:07;;;;;;;1999.90;999.90;;;;;;;;;;6184011;23;20630;-72
2023/04/11 06:43:52;;;;;;;1999.90;999.90;;;;;;;;;;6183142;23;20187;-71
2023/04/11 06:46:37;;;;;;;1999.90;999.90;;;;;;;;;;6183484;23;20547;-73
2023/04/11 06:49:22;;;;;;;1999.90;999.90;;;;;;;;;;6183867;23;20300;-72
2023/04/11 06:52:08;;;;;;;1999.90;999.90;;;;;;;;;;6184257;23;20638;-72
2023/04/11 06:54:53;;;;;;;1999.90;999.90;;;;;;;;;;6184371;23;20167;-72
2023/04/11 06:57:38;;;;;;;1999.90;999.90;;;;;;;;;;6184278;23;20197;-71
2023/04/11 07:00:23;;;;;;;1999.90;999.90;;;;;;;;;;6184445;23;20170;-72
2023/04/11 07:03:08;;;;;;;1999.90;999.90;;;;;;;;;;6184112;23;20210;-73
2023/04/11 07:05:53;;;;;;;1999.90;999.90;;;;;;;;;;6184355;23;20492;-71
2023/04/11 07:08:40;;;;;;;1999.90;999.90;;;;;;;;;;6184105;23;20775;-69
2023/04/11 07:11:26;;;;;;;1999.90;999.90;;;;;;;;;;6183652;23;20710;-73
2023/04/11 07:14:10;;;;;;;1999.90;999.90;;;;;;;;;;6184015;23;20631;-72
2023/04/11 07:16:55;;;;;;;1999.90;999.90;;;;;;;;;;6184329;23;20166;-72
2023/04/11 07:19:40;;;;;;;1999.90;999.90;;;;;;;;;;6182343;23;20249;-72
2023/04/11 07:22:25;;;;;;;1999.90;999.90;;;;;;;;;;6181741;23;20209;-73
2023/04/11 07:25:12;;;;;;;1999.90;999.90;;;;;;;;;;6181624;23;20166;-73
2023/04/11 07:27:56;;;;;;;1999.90;999.90;;;;;;;;;;6179177;23;20404;-72
2023/04/11 07:30:42;;;;;;;1999.90;999.90;;;;;;;;;;6182364;23;20214;-72
2023/04/11 07:33:27;;;;;;;1999.90;999.90;;;;;;;;;;6183249;23;20274;-73
2023/04/11 07:36:12;;;;;;;1999.90;999.90;;;;;;;;;;6182899;23;20622;-72
2023/04/11 07:38:58;;;;;;;1999.90;999.90;;;;;;;;;;6182844;23;20317;-72
2023/04/11 07:41:45;;;;;;;1999.90;999.90;;;;;;;;;;6182416;23;20167;-72
2023/04/11 07:44:29;;;;;;;1999.90;999.90;;;;;;;;;;6183379;23;20635;-73
2023/04/11 07:47:15;;;;;;;1999.90;999.90;;;;;;;;;;6182575;23;20182;-72
2023/04/11 07:50:00;;;;;;;1999.90;999.90;;;;;;;;;;6182853;23;20226;-72
2023/04/11 07:52:45;;;;;;;1999.90;999.90;;;;;;;;;;6182141;23;20627;-73
2023/04/11 07:55:30;;;;;;;1999.90;999.90;;;;;;;;;;6182755;23;20218;-73
2023/04/11 07:58:16;;;;;;;1999.90;999.90;;;;;;;;;;6182819;23;20202;-72
2023/04/11 08:01:01;;;;;;;1999.90;999.90;;;;;;;;;;6183731;23;20185;-73
2023/04/11 08:03:46;;;;;;;1999.90;999.90;;;;;;;;;;6183727;23;20608;-72
2023/04/11 08:06:31;;;;;;;1999.90;999.90;;;;;;;;;;6184017;23;20618;-74
2023/04/11 08:09:16;;;;;;;1999.90;999.90;;;;;;;;;;6180206;23;20288;-74
2023/04/11 08:12:01;;;;;;;1999.90;999.90;;;;;;;;;;6183001;23;20298;-74
2023/04/11 08:14:47;;;;;;;1999.90;999.90;;;;;;;;;;6180644;23;20395;-74
2023/04/11 08:17:36;;;;;;;1999.90;999.90;;;;;;;;;;6181466;23;20237;-74
2023/04/11 08:20:22;;;;;;;1999.90;999.90;;;;;;;;;;6182344;23;20293;-75
2023/04/11 08:23:09;;;;;;;1999.90;999.90;;;;;;;;;;6182261;23;20170;-75
2023/04/11 08:25:54;;;;;;;1999.90;999.90;;;;;;;;;;6181819;23;20172;-75
2023/04/11 08:28:39;;;;;;;1999.90;999.90;;;;;;;;;;6182239;23;20213;-76
2023/04/11 08:31:27;;;;;;;1999.90;999.90;;;;;;;;;;6182238;23;20251;-75
2023/04/11 08:34:12;;;;;;;1999.90;999.90;;;;;;;;;;6182198;23;20170;-72
2023/04/11 08:36:57;;;;;;;1999.90;999.90;;;;;;;;;;6183508;23;20627;-75
2023/04/11 08:39:42;;;;;;;1999.90;999.90;;;;;;;;;;6183640;23;20189;-74
2023/04/11 08:42:28;;;;;;;1999.90;999.90;;;;;;;;;;6183329;23;20173;-75
2023/04/11 08:45:13;;;;;;;1999.90;999.90;;;;;;;;;;6183627;23;20232;-75
2023/04/11 08:47:59;;;;;;;1999.90;999.90;;;;;;;;;;6181898;23;20746;-74
2023/04/11 08:50:44;;;;;;;1999.90;999.90;;;;;;;;;;6183409;23;20169;-75
2023/04/11 08:53:30;;;;;;;1999.90;999.90;;;;;;;;;;6182888;23;20173;-75
2023/04/11 08:56:15;;;;;;;1999.90;999.90;;;;;;;;;;6183556;23;20173;-74
2023/04/11 08:59:01;;;;;;;1999.90;999.90;;;;;;;;;;6182520;23;20374;-74
2023/04/11 09:01:45;;;;;;;1999.90;999.90;;;;;;;;;;6182523;23;20396;-75
2023/04/11 09:04:38;;;;;;;1999.90;999.90;;;;;;;;;;6182588;23;20252;-72
2023/04/11 09:07:23;;;;;;;1999.90;999.90;;;;;;;;;;6180447;23;20240;-73
2023/04/11 09:10:17;;;;;;;1999.90;999.90;;;;;;;;;;6180939;23;20654;-76
2023/04/11 09:13:18;;;;;;;1999.90;999.90;;;;;;;;;;6184994;23;20198;-75
2023/04/11 09:16:04;;;;;;;1999.90;999.90;;;;;;;;;;6185296;23;20166;-74
2023/04/11 09:18:48;;;;;;;1999.90;999.90;;;;;;;;;;6184941;23;20201;-74
2023/04/11 09:21:47;;;;;;;1999.90;999.90;;;;;;;;;;6185227;23;20514;-75
2023/04/11 09:24:33;;;;;;;1999.90;999.90;;;;;;;;;;6185163;23;20173;-74
2023/04/11 09:27:23;;;;;;;1999.90;999.90;;;;;;;;;;6185153;23;20649;-74
2023/04/11 09:30:18;;;;;;;1999.90;999.90;;;;;;;;;;6185392;23;20171;-74
2023/04/11 09:33:17;;;;;;;1999.90;999.90;;;;;;;;;;6185084;23;20218;-75
2023/04/11 09:36:17;;;;;;;1999.90;999.90;;;;;;;;;;6184296;23;20376;-73
2023/04/11 09:39:16;;;;;;;1999.90;999.90;;;;;;;;;;6184828;23;20208;-74
2023/04/11 09:42:04;;;;;;;1999.90;999.90;;;;;;;;;;6184898;23;20173;-74
2023/04/11 09:44:49;;;;;;;1999.90;999.90;;;;;;;;;;6185084;23;20170;-74
2023/04/11 09:47:34;;;;;;;1999.90;999.90;;;;;;;;;;6184771;23;20666;-75
2023/04/11 09:50:19;;;;;;;1999.90;999.90;;;;;;;;;;6184402;23;20376;-75
2023/04/11 09:53:05;;;;;;;1999.90;999.90;;;;;;;;;;6185017;23;20174;-75
2023/04/11 09:55:52;;;;;;;1999.90;999.90;;;;;;;;;;6185264;23;20173;-74
2023/04/11 09:58:38;;;;;;;1999.90;999.90;;;;;;;;;;6185076;23;20201;-75
2023/04/11 10:01:24;;;;;;;1999.90;999.90;;;;;;;;;;6185227;23;20170;-73
2023/04/11 10:04:10;;;;;;;1999.90;999.90;;;;;;;;;;6184443;23;20169;-74
2023/04/11 10:07:03;;;;;;;1999.90;999.90;;;;;;;;;;6183932;23;20173;-73
2023/04/11 10:09:48;;;;;;;1999.90;999.90;;;;;;;;;;6183513;23;20218;-73
2023/04/11 10:12:35;;;;;;;1999.90;999.90;;;;;;;;;;6184004;23;20173;-73
2023/04/11 10:15:21;;;;;;;1999.90;999.90;;;;;;;;;;6183197;23;20216;-73
2023/04/11 10:18:10;;;;;;;1999.90;999.90;;;;;;;;;;6183620;23;20268;-73
2023/04/11 10:20:55;;;;;;;1999.90;999.90;;;;;;;;;;6184100;23;20503;-75
2023/04/11 10:23:55;;;;;;;1999.90;999.90;;;;;;;;;;6182675;23;20459;-72
2023/04/11 10:26:47;;;;;;;1999.90;999.90;;;;;;;;;;6184044;23;20170;-73
2023/04/11 10:29:46;;;;;;;1999.90;999.90;;;;;;;;;;6180451;23;20245;-73
2023/04/11 10:32:31;;;;;;;1999.90;999.90;;;;;;;;;;6183317;23;20663;-73
2023/04/11 10:35:21;;;;;;;1999.90;999.90;;;;;;;;;;6183289;23;20253;-73
2023/04/11 10:38:32;;;;;;;1999.90;999.90;;;;;;;;;;6181881;23;20746;-74
2023/04/11 10:41:24;;;;;;;1999.90;999.90;;;;;;;;;;6181664;23;20166;-73
2023/04/11 10:44:19;;;;;;;1999.90;999.90;;;;;;;;;;6181122;23;20166;-74
2023/04/11 10:47:16;;;;;;;1999.90;999.90;;;;;;;;;;6182018;23;20230;-74
2023/04/11 10:50:01;;;;;;;1999.90;999.90;;;;;;;;;;6182267;23;20198;-74
2023/04/11 10:52:47;;;;;;;1999.90;999.90;;;;;;;;;;6183521;23;20187;-75
2023/04/11 10:55:41;;;;;;;1999.90;999.90;;;;;;;;;;6183797;23;20174;-73
2023/04/11 10:58:35;;;;;;;1999.90;999.90;;;;;;;;;;6183586;23;20273;-73
2023/04/11 11:01:20;;;;;;;1999.90;999.90;;;;;;;;;;6182611;23;20678;-73
2023/04/11 11:04:05;;;;;;;1999.90;999.90;;;;;;;;;;6184044;23;20174;-74
2023/04/11 11:06:50;;;;;;;1999.90;999.90;;;;;;;;;;6184150;23;20647;-73
2023/04/11 11:09:36;;;;;;;1999.90;999.90;;;;;;;;;;6182764;23;20539;-73
2023/04/11 11:12:21;;;;;;;1999.90;999.90;;;;;;;;;;6183223;23;20165;-74
2023/04/11 11:15:13;;;;;;;1999.90;999.90;;;;;;;;;;6183151;23;20238;-73
2023/04/11 11:17:58;;;;;;;1999.90;999.90;;;;;;;;;;6183273;23;20652;-73
2023/04/11 11:20:43;;;;;;;1999.90;999.90;;;;;;;;;;6183791;23;20222;-74
2023/04/11 11:23:28;;;;;;;1999.90;999.90;;;;;;;;;;6182265;23;20174;-73
2023/04/11 11:26:13;;;;;;;1999.90;999.90;;;;;;;;;;6183515;23;21102;-73
2023/04/11 11:28:58;;;;;;;1999.90;999.90;;;;;;;;;;6182324;23;20274;-74
2023/04/11 11:31:46;;;;;;;1999.90;999.90;;;;;;;;;;6183605;23;20663;-73
2023/04/11 11:34:32;;;;;;;1999.90;999.90;;;;;;;;;;6183784;23;20217;-73
2023/04/11 11:37:17;;;;;;;1999.90;999.90;;;;;;;;;;6183112;23;20499;-71
2023/04/11 11:40:05;;;;;;;1999.90;999.90;;;;;;;;;;6183013;23;20169;-74
2023/04/11 11:42:51;;;;;;;1999.90;999.90;;;;;;;;;;6183347;23;20711;-73
2023/04/11 11:45:36;;;;;;;1999.90;999.90;;;;;;;;;;6183388;23;20170;-73
2023/04/11 11:48:23;;;;;;;1999.90;999.90;;;;;;;;;;6182344;23;20685;-72
2023/04/11 11:51:08;;;;;;;1999.90;999.90;;;;;;;;;;6181714;23;20181;-74
2023/04/11 11:54:03;;;;;;;1999.90;999.90;;;;;;;;;;6183094;23;20638;-74
2023/04/11 11:56:50;;;;;;;1999.90;999.90;;;;;;;;;;6182196;23;20249;-74
2023/04/11 11:59:35;;;;;;;1999.90;999.90;;;;;;;;;;6181722;23;20685;-73
2023/04/11 12:02:20;;;;;;;1999.90;999.90;;;;;;;;;;6182411;23;20173;-73
2023/04/11 12:05:07;;;;;;;1999.90;999.90;;;;;;;;;;6182183;23;20223;-73
2023/04/11 12:07:54;;;;;;;1999.90;999.90;;;;;;;;;;6183063;23;20205;-73
2023/04/11 12:10:40;;;;;;;1999.90;999.90;;;;;;;;;;6183122;23;20181;-73
2023/04/11 12:13:26;;;;;;;1999.90;999.90;;;;;;;;;;6183400;23;20196;-73
2023/04/11 12:16:12;;;;;;;1999.90;999.90;;;;;;;;;;6182309;23;20376;-73
2023/04/11 12:18:58;;;;;;;1999.90;999.90;;;;;;;;;;6182963;23;20202;-74
2023/04/11 12:21:44;;;;;;;1999.90;999.90;;;;;;;;;;6182573;23;20210;-74
2023/04/11 12:24:29;;;;;;;1999.90;999.90;;;;;;;;;;6182639;23;20177;-73
2023/04/11 12:27:14;;;;;;;1999.90;999.90;;;;;;;;;;6182189;23;20253;-71
2023/04/11 12:29:58;;;;;;;1999.90;999.90;;;;;;;;;;6182934;23;20209;-74
2023/04/11 12:32:44;;;;;;;1999.90;999.90;;;;;;;;;;6182073;23;20698;-70
2023/04/11 12:35:30;;;;;;;1999.90;999.90;;;;;;;;;;6182464;23;20170;-71
2023/04/11 12:38:16;;;;;;;1999.90;999.90;;;;;;;;;;6181946;23;20730;-72
2023/04/11 12:41:01;;;;;;;1999.90;999.90;;;;;;;;;;6182263;23;20210;-72
2023/04/11 12:43:46;;;;;;;1999.90;999.90;;;;;;;;;;6182175;23;20170;-72
2023/04/11 12:46:32;;;;;;;1999.90;999.90;;;;;;;;;;6183690;23;20213;-72
2023/04/11 12:49:17;;;;;;;1999.90;999.90;;;;;;;;;;6184288;23;20504;-75
2023/04/11 12:52:02;;;;;;;1999.90;999.90;;;;;;;;;;6184052;23;20512;-72
2023/04/11 12:54:49;;;;;;;1999.90;999.90;;;;;;;;;;6184343;23;20257;-71
2023/04/11 12:57:33;;;;;;;1999.90;999.90;;;;;;;;;;6183583;23;20518;-72
2023/04/11 13:00:18;;;;;;;1999.90;999.90;;;;;;;;;;6184286;23;20166;-72
2023/04/11 13:03:04;;;;;;;1999.90;999.90;;;;;;;;;;6184367;23;20627;-72
2023/04/11 13:05:49;;;;;;;1999.90;999.90;;;;;;;;;;6183680;23;20747;-73
2023/04/11 13:08:34;;;;;;;1999.90;999.90;;;;;;;;;;6184226;23;20205;-72
2023/04/11 13:11:21;;;;;;;1999.90;999.90;;;;;;;;;;6184786;23;20178;-72
2023/04/11 13:14:06;;;;;;;1999.90;999.90;;;;;;;;;;6184387;23;20174;-72
2023/04/11 13:16:51;;;;;;;1999.90;999.90;;;;;;;;;;6185043;23;20166;-72
2023/04/11 13:19:36;;;;;;;1999.90;999.90;;;;;;;;;;6184490;23;20202;-73
2023/04/11 13:22:21;;;;;;;1999.90;999.90;;;;;;;;;;6183703;23;20294;-72
2023/04/11 13:25:06;;;;;;;1999.90;999.90;;;;;;;;;;6185133;23;20166;-72
2023/04/11 13:27:52;;;;;;;1999.90;999.90;;;;;;;;;;6185091;23;20200;-72
2023/04/11 13:30:37;;;;;;;1999.90;999.90;;;;;;;;;;6185136;23;20198;-72
2023/04/11 13:33:22;;;;;;;1999.90;999.90;;;;;;;;;;6184907;23;20286;-73
2023/04/11 13:36:07;;;;;;;1999.90;999.90;;;;;;;;;;6185173;23;20170;-73
2023/04/11 13:38:53;;;;;;;1999.90;999.90;;;;;;;;;;6185040;23;20737;-72
2023/04/11 13:41:38;;;;;;;1999.90;999.90;;;;;;;;;;6185114;23;20170;-72
2023/04/11 13:44:24;;;;;;;1999.90;999.90;;;;;;;;;;6185074;23;20223;-73
2023/04/11 13:47:09;;;;;;;1999.90;999.90;;;;;;;;;;6184964;23;20174;-73
2023/04/11 13:49:54;;;;;;;1999.90;999.90;;;;;;;;;;6184920;23;20672;-73
2023/04/11 13:52:39;;;;;;;1999.90;999.90;;;;;;;;;;6184903;23;20173;-73
2023/04/11 13:55:24;;;;;;;1999.90;999.90;;;;;;;;;;6184991;23;20674;-72
2023/04/11 13:58:09;;;;;;;1999.90;999.90;;;;;;;;;;6183969;23;20466;-72
2023/04/11 14:00:55;;;;;;;1999.90;999.90;;;;;;;;;;6185059;23;20165;-72
2023/04/11 14:03:41;;;;;;;1999.90;999.90;;;;;;;;;;6184518;23;20217;-72
2023/04/11 14:06:26;;;;;;;1999.90;999.90;;;;;;;;;;6184778;23;20248;-71
2023/04/11 14:09:11;;;;;;;1999.90;999.90;;;;;;;;;;6184588;23;20205;-72
2023/04/11 14:11:56;;;;;;;1999.90;999.90;;;;;;;;;;6184672;23;20241;-72
2023/04/11 14:14:41;;;;;;;1999.90;999.90;;;;;;;;;;6183646;23;20173;-72
2023/04/11 14:17:29;;;;;;;1999.90;999.90;;;;;;;;;;6183598;23;20165;-72
2023/04/11 14:20:14;;;;;;;1999.90;999.90;;;;;;;;;;6183570;23;20242;-72
2023/04/11 14:22:59;;;;;;;1999.90;999.90;;;;;;;;;;6183799;23;20256;-72
2023/04/11 14:25:45;;;;;;;1999.90;999.90;;;;;;;;;;6183562;23;20785;-72
2023/04/11 14:28:30;;;;;;;1999.90;999.90;;;;;;;;;;6183734;23;20206;-72
2023/04/11 14:31:15;;;;;;;1999.90;999.90;;;;;;;;;;6182894;23;20193;-72
2023/04/11 14:34:01;;;;;;;1999.90;999.90;;;;;;;;;;6183147;23;20256;-73
2023/04/11 14:36:46;;;;;;;1999.90;999.90;;;;;;;;;;6182854;23;20233;-72
2023/04/11 14:39:31;;;;;;;1999.90;999.90;;;;;;;;;;6182621;23;20202;-72
2023/04/11 14:42:16;;;;;;;1999.90;999.90;;;;;;;;;;6183954;23;20174;-72
2023/04/11 14:45:01;;;;;;;1999.90;999.90;;;;;;;;;;6183395;23;20376;-72
2023/04/11 14:47:46;;;;;;;1999.90;999.90;;;;;;;;;;6183327;23;20691;-72
2023/04/11 14:50:32;;;;;;;1999.90;999.90;;;;;;;;;;6183526;23;20713;-72
2023/04/11 14:53:17;;;;;;;1999.90;999.90;;;;;;;;;;6182936;23;20173;-72
2023/04/11 14:56:03;;;;;;;1999.90;999.90;;;;;;;;;;6183947;23;20250;-72
2023/04/11 14:58:49;;;;;;;1999.90;999.90;;;;;;;;;;6183361;23;20249;-73
2023/04/11 15:01:34;;;;;;;1999.90;999.90;;;;;;;;;;6183293;23;20535;-73
2023/04/11 15:04:19;;;;;;;1999.90;999.90;;;;;;;;;;6183901;23;20179;-72
2023/04/11 15:07:05;;;;;;;1999.90;999.90;;;;;;;;;;6184038;23;20169;-72
2023/04/11 15:09:50;;;;;;;1999.90;999.90;;;;;;;;;;6182938;23;20269;-73
2023/04/11 15:12:34;;;;;;;1999.90;999.90;;;;;;;;;;6184218;23;20238;-73
2023/04/11 15:15:19;;;;;;;1999.90;999.90;;;;;;;;;;6184441;23;20182;-72
2023/04/11 15:18:21;;;;;;;1999.90;999.90;;;;;;;;;;6183849;23;20280;-72
2023/04/11 15:21:07;;;;;;;1999.90;999.90;;;;;;;;;;6183776;23;20229;-72
2023/04/11 15:23:53;;;;;;;1999.90;999.90;;;;;;;;;;6183145;23;20429;-72
2023/04/11 15:26:38;;;;;;;1999.90;999.90;;;;;;;;;;6180982;23;20174;-71
2023/04/11 15:29:23;;;;;;;1999.90;999.90;;;;;;;;;;6182890;23;20204;-73
2023/04/11 15:32:08;;;;;;;1999.90;999.90;;;;;;;;;;6182074;23;20461;-73
2023/04/11 15:34:53;;;;;;;1999.90;999.90;;;;;;;;;;6183611;23;20294;-72
2023/04/11 15:37:39;;;;;;;1999.90;999.90;;;;;;;;;;6183254;23;20541;-72
2023/04/11 15:40:26;;;;;;;1999.90;999.90;;;;;;;;;;6184896;23;20167;-75
2023/04/11 15:43:11;;;;;;;1999.90;999.90;;;;;;;;;;6186012;23;20668;-72
2023/04/11 15:45:56;;;;;;;1999.90;999.90;;;;;;;;;;6185759;23;20221;-72
2023/04/11 15:48:41;;;;;;;1999.90;999.90;;;;;;;;;;6185559;23;20260;-71
2023/04/11 15:51:26;;;;;;;1999.90;999.90;;;;;;;;;;6185250;23;20193;-71
2023/04/11 15:54:11;;;;;;;1999.90;999.90;;;;;;;;;;6186247;23;20174;-72
2023/04/11 15:56:57;;;;;;;1999.90;999.90;;;;;;;;;;6184153;23;20182;-71
2023/04/11 15:59:42;;;;;;;1999.90;999.90;;;;;;;;;;6182750;23;20165;-71
2023/04/11 16:02:27;;;;;;;1999.90;999.90;;;;;;;;;;6181060;23;20452;-73
2023/04/11 16:05:12;;;;;;;1999.90;999.90;;;;;;;;;;6182614;23;20507;-73
2023/04/11 16:07:58;;;;;;;1999.90;999.90;;;;;;;;;;6182642;23;20591;-73
2023/04/11 16:10:43;;;;;;;1999.90;999.90;;;;;;;;;;6182015;23;20193;-73
2023/04/11 16:13:29;;;;;;;1999.90;999.90;;;;;;;;;;6181751;23;20173;-73
2023/04/11 16:16:14;;;;;;;1999.90;999.90;;;;;;;;;;6181996;23;20169;-72
2023/04/11 16:18:59;;;;;;;1999.90;999.90;;;;;;;;;;6182602;23;20384;-72
2023/04/11 16:21:44;;;;;;;1999.90;999.90;;;;;;;;;;6181002;23;20162;-74
2023/04/11 16:24:29;;;;;;;1999.90;999.90;;;;;;;;;;6182413;23;20170;-74
2023/04/11 16:27:14;;;;;;;1999.90;999.90;;;;;;;;;;6182962;23;20252;-72
2023/04/11 16:30:04;;;;;;;1999.90;999.90;;;;;;;;;;6182570;23;20265;-74
2023/04/11 16:32:49;;;;;;;1999.90;999.90;;;;;;;;;;6182544;23;20638;-73
2023/04/11 16:35:34;;;;;;;1999.90;999.90;;;;;;;;;;6182892;23;20170;-73
2023/04/11 16:38:19;;;;;;;1999.90;999.90;;;;;;;;;;6182827;23;20293;-73
2023/04/11 16:41:04;;;;;;;1999.90;999.90;;;;;;;;;;6183114;23;20666;-74
2023/04/11 16:43:49;;;;;;;1999.90;999.90;;;;;;;;;;6182592;23;20254;-73
2023/04/11 16:46:35;;;;;;;1999.90;999.90;;;;;;;;;;6182393;23;20193;-73
2023/04/11 16:49:20;;;;;;;1999.90;999.90;;;;;;;;;;6182837;23;20294;-74
2023/04/11 16:52:05;;;;;;;1999.90;999.90;;;;;;;;;;6182885;23;20298;-72
2023/04/11 16:54:51;;;;;;;1999.90;999.90;;;;;;;;;;6182191;23;20277;-74
2023/04/11 16:57:36;;;;;;;1999.90;999.90;;;;;;;;;;6182608;23;20634;-74
2023/04/11 17:00:21;;;;;;;1999.90;999.90;;;;;;;;;;6182361;23;20169;-73
2023/04/11 17:03:07;;;;;;;1999.90;999.90;;;;;;;;;;6182489;23;20674;-71
2023/04/11 17:05:52;;;;;;;1999.90;999.90;;;;;;;;;;6181627;23;20801;-73
2023/04/11 17:08:37;;;;;;;1999.90;999.90;;;;;;;;;;6183034;23;20731;-73
2023/04/11 17:11:22;;;;;;;1999.90;999.90;;;;;;;;;;6181876;23;20297;-72
2023/04/11 17:14:07;;;;;;;1999.90;999.90;;;;;;;;;;6182491;23;20174;-73
2023/04/11 17:16:52;;;;;;;1999.90;999.90;;;;;;;;;;6180492;23;20623;-73
2023/04/11 17:19:38;;;;;;;1999.90;999.90;;;;;;;;;;6181891;23;20202;-73
2023/04/11 17:22:23;;;;;;;1999.90;999.90;;;;;;;;;;6182161;23;20168;-73
2023/04/11 17:25:08;;;;;;;1999.90;999.90;;;;;;;;;;6181087;23;20173;-74
2023/04/11 17:27:53;;;;;;;1999.90;999.90;;;;;;;;;;6183297;23;20205;-73
2023/04/11 17:30:38;;;;;;;1999.90;999.90;;;;;;;;;;6183439;23;20194;-74
2023/04/11 17:33:23;;;;;;;1999.90;999.90;;;;;;;;;;6185085;23;20173;-73
2023/04/11 17:36:11;;;;;;;1999.90;999.90;;;;;;;;;;6184907;23;20178;-74
2023/04/11 17:38:56;;;;;;;1999.90;999.90;;;;;;;;;;6185235;23;20292;-74
2023/04/11 17:41:41;;;;;;;1999.90;999.90;;;;;;;;;;6185327;23;20173;-74
2023/04/11 17:44:26;;;;;;;1999.90;999.90;;;;;;;;;;6185143;23;20166;-75
2023/04/11 17:47:11;;;;;;;1999.90;999.90;;;;;;;;;;6183866;23;20271;-74
2023/04/11 17:49:56;;;;;;;1999.90;999.90;;;;;;;;;;6184708;23;20217;-74
2023/04/11 17:52:44;;;;;;;1999.90;999.90;;;;;;;;;;6184650;23;20169;-74
2023/04/11 17:55:29;;;;;;;1999.90;999.90;;;;;;;;;;6183172;23;20378;-74
2023/04/11 17:58:15;;;;;;;1999.90;999.90;;;;;;;;;;6184726;23;20209;-74
2023/04/11 18:01:01;;;;;;;1999.90;999.90;;;;;;;;;;6185097;23;20249;-75
2023/04/11 18:03:49;;;;;;;1999.90;999.90;;;;;;;;;;6182964;23;20169;-74
2023/04/11 18:06:34;;;;;;;1999.90;999.90;;;;;;;;;;6183843;23;20222;-74
2023/04/11 18:09:22;;;;;;;1999.90;999.90;;;;;;;;;;6183337;23;20590;-74
2023/04/11 18:12:08;;;;;;;1999.90;999.90;;;;;;;;;;6183263;23;20538;-73
2023/04/11 18:14:53;;;;;;;1999.90;999.90;;;;;;;;;;6184920;23;20671;-73
2023/04/11 18:17:39;;;;;;;1999.90;999.90;;;;;;;;;;6184594;23;20220;-73
2023/04/11 18:20:24;;;;;;;1999.90;999.90;;;;;;;;;;6184353;23;20507;-74
2023/04/11 18:23:09;;;;;;;1999.90;999.90;;;;;;;;;;6184616;23;20232;-73
2023/04/11 18:25:55;;;;;;;1999.90;999.90;;;;;;;;;;6183872;23;20174;-74
2023/04/11 18:28:40;;;;;;;1999.90;999.90;;;;;;;;;;6183548;23;20209;-73
2023/04/11 18:31:25;;;;;;;1999.90;999.90;;;;;;;;;;6184118;23;20193;-73
2023/04/11 18:34:10;;;;;;;1999.90;999.90;;;;;;;;;;6183740;23;20174;-72
2023/04/11 18:36:55;;;;;;;1999.90;999.90;;;;;;;;;;6183231;23;20177;-74
2023/04/11 18:39:40;;;;;;;1999.90;999.90;;;;;;;;;;6183551;23;20213;-73
2023/04/11 18:42:26;;;;;;;1999.90;999.90;;;;;;;;;;6183332;23;20376;-73
2023/04/11 18:45:12;;;;;;;1999.90;999.90;;;;;;;;;;6184399;23;20256;-74
2023/04/11 18:47:57;;;;;;;1999.90;999.90;;;;;;;;;;6183420;23;20312;-73
2023/04/11 18:50:45;;;;;;;1999.90;999.90;;;;;;;;;;6183791;23;20580;-73
2023/04/11 18:53:31;;;;;;;1999.90;999.90;;;;;;;;;;6183663;23;20256;-74
2023/04/11 18:56:16;;;;;;;1999.90;999.90;;;;;;;;;;6183824;23;20682;-74
2023/04/11 18:59:02;;;;;;;1999.90;999.90;;;;;;;;;;6182885;23;20224;-74
2023/04/11 19:01:48;;;;;;;1999.90;999.90;;;;;;;;;;6184374;23;20165;-72
2023/04/11 19:04:33;;;;;;;1999.90;999.90;;;;;;;;;;6183795;23;20255;-73
2023/04/11 19:07:18;;;;;;;1999.90;999.90;;;;;;;;;;6183302;23;20250;-74
2023/04/11 19:10:03;;;;;;;1999.90;999.90;;;;;;;;;;6183172;23;20173;-74
2023/04/11 19:12:48;;;;;;;1999.90;999.90;;;;;;;;;;6183446;23;20181;-73
2023/04/11 19:15:35;;;;;;;1999.90;999.90;;;;;;;;;;6183420;23;20171;-73